KCCY/CCY METAR and TAF weather

Enter ICAO airport designator
Station Type Date Time Source
KCCY METAR 2024/05/29 00:15 UTC NOAA

KCCY 290015Z AUTO 34011KT 10SM CLR 18/09 A3010 RMK AO2


Station Type Date Time Source
KCCY Decoded METAR 2024/05/29 00:15 UTC NOAA

Charles City, IA, United States (KCCY) 43-04N 092-37W
May 28, 2024 - 08:15 PM EDT / 2024.05.29 0015 UTC
Wind: from the NNW (340 degrees) at 13 MPH (11 KT):0
Visibility: 10 mile(s):0
Sky conditions: clear
Temperature: 64 F (18 C)
Dew Point: 48 F (9 C)
Relative Humidity: 55%
Pressure (altimeter): 30.1 in. Hg (1019 hPa)
ob: KCCY 290015Z AUTO 34011KT 10SM CLR 18/09 A3010 RMK AO2
cycle: 0

Station Type Date Time Source
KCCY TAF UTC NOAA

Error!

Example: see airport list